This is the latest recevied weather packets stored in our database for station/object SV9TNF-2. If no packets are shown the sender has not sent any weather packets the latest 10 day(s).
| Time | Temp. | Humidity | Pressure | Rain* | Wind** | Luminosity | Snow |
|---|---|---|---|---|---|---|---|
| 1777835703 | 14.44° C | 55% | 1023.4 hPa | 0 mm | 31.29 m/s, 73° | - | - |
| 1777835403 | 14.44° C | 67% | 1023.4 hPa | 0 mm | 13.41 m/s, 306° | - | - |
| 1777835103 | 14.44° C | 67% | 1023.4 hPa | 0 mm | 16.09 m/s, 21° | - | - |
| 1777834803 | 13.89° C | 64% | 1023.4 hPa | 0 mm | 8.05 m/s, 275° | - | - |
| 1777834503 | 14.44° C | 64% | 1023.4 hPa | 0 mm | 17.43 m/s, 13° | - | - |
| 1777834203 | 13.33° C | 62% | 1023.4 hPa | 0 mm | 12.07 m/s, 317° | - | - |
| 1777833902 | 13.33° C | 67% | 1023.4 hPa | 0 mm | 13.86 m/s, 65° | - | - |
| 1777833603 | 13.33° C | 69% | 1023.4 hPa | 0 mm | 11.62 m/s, 157° | - | - |
| 1777833303 | 14.44° C | 65% | 1023 hPa | 0 mm | 12.52 m/s, 46° | - | - |
| 1777833002 | 14.44° C | 66% | 1023 hPa | 0 mm | 15.2 m/s, 71° | - | - |
| 1777832702 | 13.89° C | 66% | 1023 hPa | 0 mm | 9.83 m/s, 90° | - | - |
| 1777832402 | 12.78° C | 73% | 1023.4 hPa | 0 mm | 3.13 m/s, 95° | - | - |
| 1777832103 | 12.22° C | 73% | 1023.4 hPa | 0 mm | 7.6 m/s, 252° | - | - |
| 1777831803 | 12.22° C | 74% | 1023.4 hPa | 0 mm | 6.71 m/s, 267° | - | - |
| 1777831502 | 11.67° C | 76% | 1023.4 hPa | 0 mm | 4.02 m/s, 259° | - | - |
| 1777831202 | 11.11° C | 77% | 1023.4 hPa | 0 mm | 5.81 m/s, 267° | - | - |
| 1777830902 | 11.11° C | 78% | 1023.4 hPa | 0 mm | 4.47 m/s, 255° | - | - |
| 1777830601 | 11.11° C | 77% | 1023.4 hPa | 0 mm | 4.92 m/s, 270° | - | - |
| 1777830301 | 11.67° C | 76% | 1023.4 hPa | 0 mm | 12.96 m/s, 212° | - | - |
| 1777830001 | 12.22° C | 75% | 1023.4 hPa | 0 mm | 4.47 m/s, 252° | - | - |
| 1777829701 | 12.78° C | 74% | 1023 hPa | 0 mm | 10.28 m/s, 245° | - | - |
| 1777829401 | 12.78° C | 73% | 1023 hPa | 0 mm | 13.86 m/s, 274° | - | - |
| 1777829101 | 12.78° C | 73% | 1022.7 hPa | 0 mm | 19.67 m/s, 265° | - | - |
| 1777828801 | 13.33° C | 70% | 1022.7 hPa | 0 mm | 16.99 m/s, 260° | - | - |
| 1777828501 | 13.33° C | 70% | 1022.7 hPa | 0 mm | 6.26 m/s, 260° | - | - |
* Rain latest hour (hover to see other rain measurements)
** Current wind speed in m/s (hover to see current wind gust speed)